createdAt,value
2023-02-19T00:01:25.248Z,95.90
2023-02-19T00:03:52.863Z,95.90
2023-02-19T00:06:19.630Z,96.00
2023-02-19T00:08:46.373Z,96.00
2023-02-19T00:11:14.595Z,96.00
2023-02-19T00:13:42.099Z,96.00
2023-02-19T00:16:09.332Z,96.00
2023-02-19T00:18:36.151Z,96.00
2023-02-19T00:21:02.988Z,96.10
2023-02-19T00:23:29.969Z,96.10
2023-02-19T00:26:01.002Z,96.10
2023-02-19T00:28:29.870Z,96.10
2023-02-19T00:30:56.598Z,96.10
2023-02-19T00:33:23.244Z,96.20
2023-02-19T00:35:49.886Z,96.20
2023-02-19T00:38:16.661Z,96.40
2023-02-19T00:40:43.367Z,96.40
2023-02-19T00:43:10.052Z,96.40
2023-02-19T00:45:36.768Z,96.40
2023-02-19T00:48:03.488Z,96.60
2023-02-19T00:50:30.148Z,96.30
2023-02-19T00:52:56.787Z,96.30
2023-02-19T00:55:23.449Z,96.20
2023-02-19T00:57:50.233Z,96.20
2023-02-19T01:00:17.037Z,96.20
2023-02-19T01:02:43.748Z,96.30
2023-02-19T01:05:10.481Z,96.30
2023-02-19T01:07:37.331Z,96.30
2023-02-19T01:10:04.451Z,96.60
2023-02-19T01:12:31.436Z,96.40
2023-02-19T01:14:58.265Z,96.50
2023-02-19T01:17:24.857Z,96.40
2023-02-19T01:19:51.662Z,96.40
2023-02-19T01:22:18.296Z,96.40
2023-02-19T01:24:44.892Z,96.40
2023-02-19T01:27:11.505Z,96.40
2023-02-19T01:29:38.174Z,96.60
2023-02-19T01:32:04.907Z,96.60
2023-02-19T01:34:33.381Z,96.70
2023-02-19T01:37:00.113Z,96.70
2023-02-19T01:39:26.787Z,96.70
2023-02-19T01:41:53.608Z,96.70
2023-02-19T01:44:20.250Z,96.60
2023-02-19T01:46:48.516Z,96.70
2023-02-19T01:49:19.135Z,96.70
2023-02-19T01:51:48.228Z,96.60
2023-02-19T01:54:15.634Z,96.60
2023-02-19T01:56:42.715Z,96.50
2023-02-19T01:59:09.574Z,96.50
2023-02-19T02:01:37.535Z,96.50
2023-02-19T02:04:04.910Z,96.50
2023-02-19T02:06:31.827Z,96.50
2023-02-19T02:09:17.706Z,96.40
2023-02-19T02:11:45.803Z,96.40
2023-02-19T02:14:12.430Z,96.50
2023-02-19T02:16:43.196Z,96.60
2023-02-19T02:19:12.963Z,96.60
2023-02-19T02:22:05.935Z,96.60
2023-02-19T02:24:51.047Z,96.60
2023-02-19T02:27:41.291Z,96.60
2023-02-19T02:30:20.978Z,96.60
2023-02-19T02:32:53.983Z,96.70
2023-02-19T02:35:22.436Z,96.70
2023-02-19T02:37:49.144Z,96.70
2023-02-19T02:40:15.767Z,96.70
2023-02-19T02:42:42.806Z,96.70
2023-02-19T02:45:34.837Z,97.00
2023-02-19T02:48:20.107Z,96.70
2023-02-19T02:50:48.290Z,96.80
2023-02-19T02:53:35.119Z,96.80
2023-02-19T02:56:01.990Z,96.80
2023-02-19T02:58:28.621Z,96.80
2023-02-19T03:01:15.599Z,96.80
2023-02-19T03:03:43.266Z,96.80
2023-02-19T03:06:09.861Z,96.90
2023-02-19T03:08:45.143Z,96.90
2023-02-19T03:11:30.633Z,96.90
2023-02-19T03:14:25.708Z,96.90
2023-02-19T03:17:10.938Z,96.90
2023-02-19T03:19:38.327Z,96.90
2023-02-19T03:22:17.737Z,96.90
2023-02-19T03:25:04.414Z,96.90
2023-02-19T03:27:31.069Z,97.00
2023-02-19T03:29:58.321Z,97.00
2023-02-19T03:32:29.880Z,97.00
2023-02-19T03:35:04.932Z,97.20
2023-02-19T03:37:38.891Z,97.10
2023-02-19T03:40:05.865Z,97.10
2023-02-19T03:42:35.750Z,97.10
2023-02-19T03:45:09.437Z,97.10
2023-02-19T03:47:39.963Z,97.00
2023-02-19T03:50:18.172Z,96.90
2023-02-19T03:53:03.638Z,96.90
2023-02-19T03:55:32.301Z,96.80
2023-02-19T03:58:03.224Z,96.80
2023-02-19T04:00:40.694Z,96.80
2023-02-19T04:03:10.434Z,96.90
2023-02-19T04:05:41.525Z,96.90
2023-02-19T04:08:10.006Z,96.90
2023-02-19T04:10:36.875Z,96.90
2023-02-19T04:13:07.758Z,97.00
2023-02-19T04:15:34.445Z,97.00
2023-02-19T04:18:02.930Z,96.90
2023-02-19T04:20:30.164Z,97.00
2023-02-19T04:22:56.986Z,97.00
2023-02-19T04:25:23.721Z,97.00
2023-02-19T04:27:50.401Z,97.00
2023-02-19T04:30:17.094Z,97.10
2023-02-19T04:32:43.817Z,97.20
2023-02-19T04:35:10.437Z,97.20
2023-02-19T04:37:37.086Z,97.20
2023-02-19T04:40:03.857Z,97.20
2023-02-19T04:42:30.564Z,97.20
2023-02-19T04:44:57.174Z,97.20
2023-02-19T04:47:23.822Z,97.10
2023-02-19T04:49:50.505Z,97.20
2023-02-19T04:52:17.235Z,97.20
2023-02-19T04:54:43.964Z,97.10
2023-02-19T04:57:10.637Z,97.10
2023-02-19T04:59:37.312Z,97.00
2023-02-19T05:02:04.069Z,97.00
2023-02-19T05:04:30.852Z,96.90
2023-02-19T05:06:57.636Z,96.90
2023-02-19T05:09:24.332Z,96.90
2023-02-19T05:11:51.084Z,96.90
2023-02-19T05:14:17.726Z,96.90
2023-02-19T05:16:44.370Z,96.90
2023-02-19T05:19:11.533Z,96.80
2023-02-19T05:21:39.602Z,96.80
2023-02-19T05:24:06.607Z,96.70
2023-02-19T05:26:33.282Z,96.60
2023-02-19T05:28:59.982Z,96.60
2023-02-19T05:31:26.709Z,96.60
2023-02-19T05:33:55.651Z,96.60
2023-02-19T05:36:22.519Z,96.50
2023-02-19T05:38:52.092Z,96.40
2023-02-19T05:41:19.775Z,96.40
2023-02-19T05:43:46.663Z,96.50
2023-02-19T05:46:14.552Z,96.40
2023-02-19T05:48:41.332Z,96.50
2023-02-19T05:51:09.079Z,96.50
2023-02-19T05:53:36.069Z,96.50
2023-02-19T05:56:02.739Z,96.60
2023-02-19T05:58:29.464Z,96.50
2023-02-19T06:00:56.208Z,96.60
2023-02-19T06:03:22.850Z,96.50
2023-02-19T06:05:49.521Z,96.40
2023-02-19T06:08:16.248Z,96.40
2023-02-19T06:10:43.033Z,96.30
2023-02-19T06:13:09.953Z,96.30
2023-02-19T06:15:36.873Z,96.30
2023-02-19T06:18:03.757Z,96.40
2023-02-19T06:20:30.471Z,96.40
2023-02-19T06:22:57.181Z,96.40
2023-02-19T06:25:23.942Z,96.40
2023-02-19T06:27:50.622Z,96.40
2023-02-19T06:30:17.361Z,96.40
2023-02-19T06:32:44.059Z,96.70
2023-02-19T06:35:10.704Z,96.40
2023-02-19T06:37:37.333Z,96.40
2023-02-19T06:40:04.238Z,96.30
2023-02-19T06:42:34.038Z,96.40
2023-02-19T06:45:00.623Z,96.40
2023-02-19T06:47:29.253Z,96.50
2023-02-19T06:49:55.868Z,96.40
2023-02-19T06:52:22.516Z,96.50
2023-02-19T06:54:49.175Z,96.50
2023-02-19T06:57:15.766Z,96.70
2023-02-19T06:59:42.511Z,96.70
2023-02-19T07:02:10.529Z,96.50
2023-02-19T07:04:37.163Z,96.50
2023-02-19T07:07:03.883Z,96.50
2023-02-19T07:09:30.556Z,96.50
2023-02-19T07:11:57.229Z,96.50
2023-02-19T07:14:23.839Z,96.50
2023-02-19T07:16:51.144Z,96.60
2023-02-19T07:19:17.812Z,96.50
2023-02-19T07:21:44.536Z,96.70
2023-02-19T07:24:11.265Z,96.50
2023-02-19T07:26:38.050Z,96.50
2023-02-19T07:29:04.879Z,96.50
2023-02-19T07:31:31.589Z,96.60
2023-02-19T07:33:58.500Z,96.60
2023-02-19T07:36:25.830Z,96.60
2023-02-19T07:38:58.981Z,96.60
2023-02-19T07:41:25.946Z,96.60
2023-02-19T07:43:53.363Z,96.60
2023-02-19T07:46:20.161Z,96.60
2023-02-19T07:48:46.798Z,96.50
2023-02-19T07:51:15.066Z,96.60
2023-02-19T07:53:41.802Z,96.60
2023-02-19T07:56:08.485Z,96.50
2023-02-19T07:58:35.249Z,96.50
2023-02-19T08:01:09.315Z,96.50
2023-02-19T08:03:36.769Z,96.40
2023-02-19T08:06:03.618Z,96.40
2023-02-19T08:08:30.402Z,96.50
2023-02-19T08:11:18.469Z,96.40
2023-02-19T08:13:45.199Z,96.40
2023-02-19T08:16:20.182Z,96.40
2023-02-19T08:18:51.021Z,96.40
2023-02-19T08:21:21.130Z,96.40
2023-02-19T08:23:50.601Z,96.40
2023-02-19T08:26:17.635Z,96.40
2023-02-19T08:28:44.261Z,96.40
2023-02-19T08:31:11.418Z,96.40
2023-02-19T08:33:38.383Z,96.40
2023-02-19T08:36:05.544Z,96.40
2023-02-19T08:38:32.875Z,96.30
2023-02-19T08:40:59.614Z,96.30
2023-02-19T08:43:26.273Z,96.30
2023-02-19T08:45:53.274Z,96.30
2023-02-19T08:48:20.067Z,96.30
2023-02-19T08:50:52.950Z,96.30
2023-02-19T08:53:19.648Z,96.20
2023-02-19T08:55:46.368Z,96.20
2023-02-19T08:58:13.030Z,96.20
2023-02-19T09:00:39.665Z,96.20
2023-02-19T09:03:06.576Z,96.10
2023-02-19T09:05:33.213Z,96.10
2023-02-19T09:07:59.853Z,96.10
2023-02-19T09:10:26.634Z,96.10
2023-02-19T09:12:53.228Z,96.20
2023-02-19T09:15:19.884Z,96.10
2023-02-19T09:17:50.916Z,96.10
2023-02-19T09:20:17.562Z,96.10
2023-02-19T09:22:44.180Z,96.00
2023-02-19T09:25:10.835Z,96.00
2023-02-19T09:27:37.499Z,96.00
2023-02-19T09:30:04.714Z,96.00
2023-02-19T09:32:31.692Z,95.90
2023-02-19T09:34:58.343Z,95.80
2023-02-19T09:37:25.848Z,95.70
2023-02-19T09:39:52.502Z,95.70
2023-02-19T09:42:19.835Z,95.60
2023-02-19T09:44:48.303Z,95.60
2023-02-19T09:47:33.086Z,95.50
2023-02-19T09:50:00.978Z,95.50
2023-02-19T09:52:48.455Z,95.40
2023-02-19T09:55:16.600Z,95.30
2023-02-19T09:57:43.573Z,95.50
2023-02-19T10:00:19.083Z,95.20
2023-02-19T10:02:45.824Z,95.20
2023-02-19T10:05:12.925Z,95.10
2023-02-19T10:07:49.536Z,95.00
2023-02-19T10:10:16.157Z,95.00
2023-02-19T10:12:45.183Z,95.00
2023-02-19T10:15:12.408Z,94.80
2023-02-19T10:17:39.126Z,94.80
2023-02-19T10:20:06.080Z,94.60
2023-02-19T10:22:32.757Z,94.50
2023-02-19T10:24:59.465Z,94.40
2023-02-19T10:27:27.100Z,94.50
2023-02-19T10:29:53.726Z,94.50
2023-02-19T10:32:23.974Z,94.30
2023-02-19T10:35:10.221Z,94.30
2023-02-19T10:37:41.356Z,94.20
2023-02-19T10:40:12.718Z,94.00
2023-02-19T10:42:39.356Z,93.90
2023-02-19T10:45:06.420Z,93.80
2023-02-19T10:47:33.267Z,93.80
2023-02-19T10:50:00.534Z,93.80
2023-02-19T10:52:28.820Z,93.80
2023-02-19T10:54:56.508Z,93.80
2023-02-19T10:57:32.852Z,93.70
2023-02-19T11:00:01.835Z,93.80
2023-02-19T11:02:29.536Z,93.70
2023-02-19T11:05:03.928Z,93.70
2023-02-19T11:07:30.616Z,93.60
2023-02-19T11:09:57.500Z,93.60
2023-02-19T11:12:28.352Z,93.50
2023-02-19T11:14:55.026Z,93.30
2023-02-19T11:17:28.247Z,93.30
2023-02-19T11:20:04.590Z,93.20
2023-02-19T11:22:35.292Z,93.10
2023-02-19T11:25:06.033Z,93.00
2023-02-19T11:27:32.794Z,92.90
2023-02-19T11:30:18.423Z,92.80
2023-02-19T11:32:45.203Z,92.80
2023-02-19T11:35:17.610Z,92.90
2023-02-19T11:37:54.212Z,92.70
2023-02-19T11:40:21.847Z,92.70
2023-02-19T11:43:07.130Z,92.60
2023-02-19T11:45:43.735Z,92.60
2023-02-19T11:48:10.769Z,92.60
2023-02-19T11:50:48.835Z,92.60
2023-02-19T11:53:28.969Z,92.70
2023-02-19T11:56:08.026Z,92.40
2023-02-19T11:58:54.931Z,92.40
2023-02-19T12:01:40.161Z,92.20
2023-02-19T12:04:25.692Z,91.80
2023-02-19T12:07:00.198Z,91.80
2023-02-19T12:09:30.673Z,91.50
2023-02-19T12:11:59.466Z,91.40
2023-02-19T12:14:45.083Z,91.30
2023-02-19T12:17:30.209Z,91.30
2023-02-19T12:20:35.542Z,91.10
2023-02-19T12:23:07.893Z,90.50
2023-02-19T12:25:52.943Z,90.10
2023-02-19T12:28:52.007Z,90.30
2023-02-19T12:31:18.816Z,90.20
2023-02-19T12:33:45.588Z,90.10
2023-02-19T12:36:32.558Z,90.00
2023-02-19T12:39:05.502Z,88.90
2023-02-19T12:41:42.168Z,89.30
2023-02-19T12:44:13.853Z,89.10
2023-02-19T12:46:42.472Z,89.20
2023-02-19T12:49:13.604Z,89.30
2023-02-19T12:51:50.040Z,89.00
2023-02-19T12:54:21.859Z,88.20
2023-02-19T12:56:54.235Z,88.00
2023-02-19T12:59:20.957Z,87.80
2023-02-19T13:01:59.832Z,88.00
2023-02-19T13:04:26.527Z,87.80
2023-02-19T13:06:56.017Z,88.00
2023-02-19T13:09:36.993Z,87.70
2023-02-19T13:12:05.803Z,87.70
2023-02-19T13:14:37.231Z,87.30
2023-02-19T13:17:22.768Z,87.20
2023-02-19T13:19:50.278Z,87.60
2023-02-19T13:22:58.852Z,86.60
2023-02-19T13:25:28.174Z,86.60
2023-02-19T13:27:56.821Z,86.70
2023-02-19T13:30:41.254Z,86.40
2023-02-19T13:33:22.555Z,86.10
2023-02-19T13:36:08.394Z,86.20
2023-02-19T13:38:42.553Z,86.30
2023-02-19T13:41:33.766Z,86.00
2023-02-19T13:44:04.477Z,85.90
2023-02-19T13:46:34.922Z,85.50
2023-02-19T13:49:20.728Z,84.90
2023-02-19T13:51:49.263Z,84.90
2023-02-19T13:54:26.677Z,85.10
2023-02-19T13:57:14.432Z,84.90
2023-02-19T13:59:41.572Z,84.60
2023-02-19T14:02:22.107Z,84.40
2023-02-19T14:04:51.121Z,84.40
2023-02-19T14:07:17.868Z,83.60
2023-02-19T14:09:47.658Z,83.50
2023-02-19T14:12:15.869Z,83.70
2023-02-19T14:14:43.077Z,84.00
2023-02-19T14:17:09.827Z,84.00
2023-02-19T14:19:36.513Z,83.90
2023-02-19T14:22:08.063Z,83.70
2023-02-19T14:24:34.772Z,83.60
2023-02-19T14:27:01.442Z,83.80
2023-02-19T14:29:28.097Z,83.70
2023-02-19T14:31:54.893Z,83.70
2023-02-19T14:34:23.537Z,83.70
2023-02-19T14:36:53.807Z,83.60
2023-02-19T14:39:22.449Z,83.10
2023-02-19T14:41:50.563Z,83.20
2023-02-19T14:44:18.613Z,83.00
2023-02-19T14:46:46.438Z,83.00
2023-02-19T14:49:17.389Z,82.80
2023-02-19T14:51:44.586Z,82.80
2023-02-19T14:54:31.699Z,82.90
2023-02-19T14:56:58.541Z,82.70
2023-02-19T14:59:25.429Z,82.70
2023-02-19T15:02:02.646Z,82.70
2023-02-19T15:04:31.552Z,82.70
2023-02-19T15:07:02.898Z,82.50
2023-02-19T15:09:30.884Z,82.40
2023-02-19T15:11:57.917Z,82.40
2023-02-19T15:14:24.724Z,82.20
2023-02-19T15:16:53.742Z,82.00
2023-02-19T15:19:20.430Z,82.20
2023-02-19T15:21:48.047Z,82.10
2023-02-19T15:24:15.629Z,81.90
2023-02-19T15:26:43.420Z,81.50
2023-02-19T15:29:11.433Z,81.20
2023-02-19T15:31:44.630Z,81.10
2023-02-19T15:34:25.907Z,81.10
2023-02-19T15:36:57.382Z,81.30
2023-02-19T15:39:33.194Z,81.10
2023-02-19T15:42:00.676Z,81.20
2023-02-19T15:44:35.828Z,81.40
2023-02-19T15:47:05.151Z,81.40
2023-02-19T15:49:39.638Z,81.40
2023-02-19T15:52:08.250Z,81.70
2023-02-19T15:54:41.678Z,81.60
2023-02-19T15:57:10.019Z,81.70
2023-02-19T15:59:40.931Z,81.50
2023-02-19T16:02:11.996Z,81.40
2023-02-19T16:04:38.740Z,81.70
2023-02-19T16:07:05.638Z,81.60
2023-02-19T16:09:38.861Z,81.90
2023-02-19T16:12:27.404Z,82.00
2023-02-19T16:14:54.070Z,82.00
2023-02-19T16:17:23.036Z,82.20
2023-02-19T16:19:53.501Z,82.20
2023-02-19T16:22:21.337Z,82.20
2023-02-19T16:25:00.326Z,82.30
2023-02-19T16:27:31.296Z,82.30
2023-02-19T16:29:58.076Z,82.30
2023-02-19T16:32:25.075Z,82.30
2023-02-19T16:34:52.069Z,82.10
2023-02-19T16:37:31.603Z,81.90
2023-02-19T16:40:07.467Z,82.00
2023-02-19T16:42:34.647Z,82.00
2023-02-19T16:45:01.417Z,82.00
2023-02-19T16:47:31.652Z,81.70
2023-02-19T16:49:59.332Z,81.70
2023-02-19T16:52:26.164Z,81.60
2023-02-19T16:54:53.192Z,81.60
2023-02-19T16:57:20.674Z,81.50
2023-02-19T16:59:47.703Z,81.50
2023-02-19T17:02:19.563Z,81.60
2023-02-19T17:04:49.517Z,81.50
2023-02-19T17:07:16.508Z,81.50
2023-02-19T17:09:46.346Z,81.50
2023-02-19T17:12:13.800Z,81.50
2023-02-19T17:14:40.685Z,81.60
2023-02-19T17:17:07.608Z,81.60
2023-02-19T17:19:34.352Z,81.70
2023-02-19T17:22:01.061Z,81.70
2023-02-19T17:24:27.828Z,81.80
2023-02-19T17:26:54.647Z,81.90
2023-02-19T17:29:21.439Z,81.90
2023-02-19T17:31:48.209Z,82.00
2023-02-19T17:34:20.129Z,82.00
2023-02-19T17:36:56.699Z,82.10
2023-02-19T17:39:23.432Z,82.10
2023-02-19T17:41:50.447Z,82.20
2023-02-19T17:44:17.521Z,82.20
2023-02-19T17:46:45.671Z,82.30
2023-02-19T17:49:15.362Z,82.40
2023-02-19T17:51:42.234Z,82.50
2023-02-19T17:54:09.525Z,82.60
2023-02-19T17:56:36.463Z,82.60
2023-02-19T17:59:03.389Z,82.60
2023-02-19T18:01:30.159Z,82.60
2023-02-19T18:03:57.227Z,82.70
2023-02-19T18:06:24.266Z,82.70
2023-02-19T18:08:51.487Z,82.70
2023-02-19T18:11:18.603Z,82.80
2023-02-19T18:13:45.461Z,82.90
2023-02-19T18:16:12.272Z,83.00
2023-02-19T18:18:38.973Z,83.10
2023-02-19T18:21:07.887Z,83.10
2023-02-19T18:23:34.584Z,83.20
2023-02-19T18:26:01.346Z,83.30
2023-02-19T18:28:28.051Z,83.30
2023-02-19T18:30:54.931Z,83.40
2023-02-19T18:33:22.180Z,83.40
2023-02-19T18:35:50.298Z,83.50
2023-02-19T18:38:17.044Z,83.50
2023-02-19T18:40:43.998Z,83.50
2023-02-19T18:43:10.954Z,83.60
2023-02-19T18:45:37.840Z,83.80
2023-02-19T18:48:05.032Z,83.90
2023-02-19T18:50:32.022Z,84.10
2023-02-19T18:52:58.816Z,84.20
2023-02-19T18:55:25.517Z,84.40
2023-02-19T18:57:52.231Z,84.50
2023-02-19T19:00:20.142Z,84.70
2023-02-19T19:02:49.703Z,84.80
2023-02-19T19:05:20.957Z,84.90
2023-02-19T19:07:47.799Z,85.10
2023-02-19T19:10:14.801Z,85.10
2023-02-19T19:12:41.463Z,85.30
2023-02-19T19:15:08.380Z,85.30
2023-02-19T19:17:35.173Z,85.30
2023-02-19T19:20:02.123Z,85.50
2023-02-19T19:22:28.907Z,85.70
2023-02-19T19:24:55.624Z,85.80
2023-02-19T19:27:22.373Z,85.90
2023-02-19T19:29:49.700Z,85.90
2023-02-19T19:32:16.582Z,86.00
2023-02-19T19:34:43.400Z,86.20
2023-02-19T19:37:12.237Z,86.20
2023-02-19T19:39:38.992Z,86.20
2023-02-19T19:42:09.096Z,86.20
2023-02-19T19:44:35.781Z,86.20
2023-02-19T19:47:02.604Z,86.20
2023-02-19T19:49:29.598Z,86.40
2023-02-19T19:52:00.990Z,86.50
2023-02-19T19:54:28.148Z,86.50
2023-02-19T19:56:55.437Z,86.40
2023-02-19T19:59:23.300Z,86.50
2023-02-19T20:01:53.048Z,86.60
2023-02-19T20:04:20.430Z,86.70
2023-02-19T20:06:47.303Z,86.80
2023-02-19T20:09:17.400Z,87.00
2023-02-19T20:11:45.163Z,87.00
2023-02-19T20:14:12.047Z,87.10
2023-02-19T20:16:39.122Z,87.20
2023-02-19T20:19:06.149Z,87.30
2023-02-19T20:21:32.924Z,87.60
2023-02-19T20:23:59.728Z,87.60
2023-02-19T20:26:27.068Z,87.80
2023-02-19T20:28:53.921Z,87.90
2023-02-19T20:31:20.997Z,88.00
2023-02-19T20:33:50.118Z,88.20
2023-02-19T20:36:17.243Z,88.00
2023-02-19T20:38:44.204Z,88.00
2023-02-19T20:41:11.505Z,88.00
2023-02-19T20:43:38.396Z,88.10
2023-02-19T20:46:05.281Z,88.20
2023-02-19T20:48:32.127Z,88.30
2023-02-19T20:51:01.595Z,88.40
2023-02-19T20:53:28.700Z,88.70
2023-02-19T20:55:56.166Z,88.70
2023-02-19T20:58:23.182Z,88.70
2023-02-19T21:00:49.990Z,88.70
2023-02-19T21:03:16.906Z,88.80
2023-02-19T21:05:43.835Z,88.80
2023-02-19T21:08:11.868Z,89.10
2023-02-19T21:10:38.934Z,89.10
2023-02-19T21:13:05.756Z,89.00
2023-02-19T21:15:32.527Z,89.30
2023-02-19T21:17:59.397Z,89.30
2023-02-19T21:20:26.073Z,89.40
2023-02-19T21:23:02.697Z,89.50
2023-02-19T21:25:31.456Z,89.60
2023-02-19T21:27:58.349Z,89.70
2023-02-19T21:30:25.554Z,89.90
2023-02-19T21:32:52.437Z,89.90
2023-02-19T21:35:19.089Z,89.90
2023-02-19T21:37:45.801Z,90.00
2023-02-19T21:40:12.711Z,90.10
2023-02-19T21:42:39.366Z,90.10
2023-02-19T21:45:06.466Z,90.20
2023-02-19T21:47:33.140Z,90.30
2023-02-19T21:49:59.924Z,90.30
2023-02-19T21:52:27.130Z,90.40
2023-02-19T21:54:57.428Z,90.50
2023-02-19T21:57:30.185Z,90.50
2023-02-19T21:59:57.201Z,90.60
2023-02-19T22:02:24.353Z,90.70
2023-02-19T22:04:53.792Z,90.70
2023-02-19T22:07:21.320Z,90.70
2023-02-19T22:09:48.625Z,90.80
2023-02-19T22:12:15.420Z,90.80
2023-02-19T22:14:42.088Z,90.90
2023-02-19T22:17:08.943Z,90.90
2023-02-19T22:19:35.771Z,90.90
2023-02-19T22:22:02.567Z,91.00
2023-02-19T22:24:29.331Z,91.00
2023-02-19T22:26:58.979Z,91.10
2023-02-19T22:29:25.684Z,91.20
2023-02-19T22:31:52.972Z,91.20
2023-02-19T22:34:19.757Z,91.20
2023-02-19T22:36:46.727Z,91.30
2023-02-19T22:39:18.116Z,91.30
2023-02-19T22:41:44.881Z,91.40
2023-02-19T22:44:11.548Z,91.40
2023-02-19T22:46:38.250Z,91.50
2023-02-19T22:49:08.001Z,91.60
2023-02-19T22:51:37.404Z,91.60
2023-02-19T22:54:14.198Z,91.60
2023-02-19T22:56:40.967Z,91.70
2023-02-19T22:59:07.646Z,91.80
2023-02-19T23:01:34.363Z,91.80
2023-02-19T23:04:01.343Z,91.80
2023-02-19T23:06:31.094Z,91.90
2023-02-19T23:08:59.375Z,92.10
2023-02-19T23:11:27.046Z,92.10
2023-02-19T23:13:54.080Z,92.20
2023-02-19T23:16:24.015Z,92.20
2023-02-19T23:18:51.286Z,92.30
2023-02-19T23:21:18.390Z,92.40
2023-02-19T23:23:46.526Z,92.40
2023-02-19T23:26:13.741Z,92.40
2023-02-19T23:28:40.956Z,92.40
2023-02-19T23:31:07.890Z,92.40
2023-02-19T23:33:34.609Z,92.50
2023-02-19T23:36:01.323Z,92.60
2023-02-19T23:38:28.156Z,92.60
2023-02-19T23:40:54.870Z,92.70
2023-02-19T23:43:21.667Z,92.80
2023-02-19T23:45:48.398Z,92.90
2023-02-19T23:48:15.186Z,92.90
2023-02-19T23:50:41.957Z,92.90
2023-02-19T23:53:08.995Z,92.90
2023-02-19T23:55:35.724Z,92.90
2023-02-19T23:58:02.471Z,93.00
